Logten, Denmark
Current Conditions -  °F | °C
As of 8:50 AM on Sunday 26 Oct 2014 (Local Time) from EKAH Reporting Station
Rain Showers Rain Showers  
Wind Chill: 54°   Ceiling: 3400
Heat Index: 54°   Visibility: 5mi
Dew Point: 50°   Wind: 10mph
Humidity: 88%   Direction: 200°SSW
Pressure: 30.03"   Gusts: 22mph
Location:  56.27°N, 10.31°E
Report Text: EKAH 260650Z AUTO 20009G19KT 150V250 8000NDV -SHRA FEW010///BKN034/// 12/10 Q1017
Loading
Personal Weather Stations






























Interactive Weather Map
Tropical Storm Tracking
New forecast layout! Learn more

10-Day Weather Forecast

Advertisements
Track Severe Weather on mobile